createdAt,value
2022-09-26T00:02:07.441Z,358.60
2022-09-26T00:07:07.465Z,382.30
2022-09-26T00:12:07.453Z,382.30
2022-09-26T00:17:07.727Z,367.00
2022-09-26T00:22:07.441Z,367.00
2022-09-26T00:27:07.466Z,233.10
2022-09-26T00:32:07.494Z,233.10
2022-09-26T00:37:07.550Z,220.70
2022-09-26T00:42:07.507Z,220.70
2022-09-26T00:47:07.475Z,245.80
2022-09-26T00:52:07.482Z,245.80
2022-09-26T00:57:07.450Z,170.50
2022-09-26T01:02:07.751Z,170.50
2022-09-26T01:07:07.466Z,148.20
2022-09-26T01:12:07.519Z,148.20
2022-09-26T01:17:07.573Z,687.30
2022-09-26T01:22:07.582Z,687.30
2022-09-26T01:27:07.467Z,664.70
2022-09-26T01:32:07.507Z,664.70
2022-09-26T01:37:07.484Z,516.50
2022-09-26T01:47:07.590Z,499.90
2022-09-26T01:52:07.511Z,499.90
2022-09-26T01:57:07.525Z,501.40
2022-09-26T02:02:07.566Z,501.40
2022-09-26T02:07:07.502Z,470.00
2022-09-26T02:12:07.502Z,470.00
2022-09-26T02:17:07.518Z,440.70
2022-09-26T02:22:07.507Z,440.70
2022-09-26T02:27:07.532Z,361.60
2022-09-26T02:32:07.586Z,361.60
2022-09-26T02:37:07.530Z,363.80
2022-09-26T02:42:07.585Z,363.80
2022-09-26T02:47:07.504Z,397.20
2022-09-26T02:57:07.553Z,404.00
2022-09-26T03:02:07.510Z,404.00
2022-09-26T03:07:07.551Z,424.00
2022-09-26T03:12:07.567Z,424.00
2022-09-26T03:17:07.540Z,538.00
2022-09-26T03:22:07.576Z,538.00
2022-09-26T03:27:07.630Z,477.40
2022-09-26T03:32:07.594Z,477.40
2022-09-26T03:37:07.576Z,535.00
2022-09-26T03:42:07.571Z,535.00
2022-09-26T03:47:07.546Z,525.40
2022-09-26T03:52:07.644Z,525.40
2022-09-26T03:57:07.540Z,516.00
2022-09-26T04:02:07.656Z,516.00
2022-09-26T04:07:07.569Z,450.20
2022-09-26T04:12:07.545Z,450.20
2022-09-26T04:17:07.576Z,430.20
2022-09-26T04:22:07.561Z,430.20
2022-09-26T04:27:07.584Z,419.40
2022-09-26T04:32:07.600Z,419.40
2022-09-26T04:37:07.568Z,440.20
2022-09-26T04:42:07.593Z,440.20
2022-09-26T04:47:07.591Z,414.40
2022-09-26T04:52:07.590Z,414.40
2022-09-26T04:57:07.559Z,562.10
2022-09-26T05:02:07.679Z,562.10
2022-09-26T05:07:07.578Z,436.80
2022-09-26T05:12:07.612Z,436.80
2022-09-26T05:17:07.598Z,469.20
2022-09-26T05:22:07.596Z,469.20
2022-09-26T05:27:07.665Z,502.10
2022-09-26T05:32:07.606Z,502.10
2022-09-26T05:37:07.627Z,573.70
2022-09-26T05:42:07.578Z,573.70
2022-09-26T05:47:07.709Z,831.40
2022-09-26T05:52:07.703Z,831.40
2022-09-26T05:57:07.767Z,739.60
2022-09-26T06:02:07.773Z,739.60
2022-09-26T06:07:07.624Z,673.30
2022-09-26T06:12:07.599Z,673.30
2022-09-26T06:17:07.636Z,750.30
2022-09-26T06:22:07.611Z,750.30
2022-09-26T06:27:07.621Z,493.00
2022-09-26T06:32:07.977Z,493.00
2022-09-26T06:37:07.649Z,497.80
2022-09-26T06:42:07.698Z,497.80
2022-09-26T06:47:07.690Z,509.50
2022-09-26T06:52:07.621Z,509.50
2022-09-26T06:57:10.536Z,743.40
2022-09-26T07:02:07.854Z,743.40
2022-09-26T07:07:07.645Z,529.30
2022-09-26T07:12:14.645Z,529.30
2022-09-26T07:17:07.649Z,445.30
2022-09-26T07:22:07.657Z,445.30
2022-09-26T07:27:07.681Z,487.60
2022-09-26T07:32:07.655Z,487.60
2022-09-26T07:37:07.645Z,516.30
2022-09-26T07:42:07.680Z,516.30
2022-09-26T07:47:07.695Z,526.60
2022-09-26T07:52:07.672Z,526.60
2022-09-26T07:57:07.686Z,553.60
2022-09-26T08:07:07.670Z,560.40
2022-09-26T08:12:07.692Z,560.40
2022-09-26T08:17:11.901Z,587.40
2022-09-26T08:22:07.668Z,587.40
2022-09-26T08:27:07.692Z,913.50
2022-09-26T08:32:07.686Z,913.50
2022-09-26T08:37:07.685Z,621.40
2022-09-26T08:52:07.702Z,549.60
2022-09-26T09:02:07.780Z,643.00
2022-09-26T09:07:07.710Z,421.70
2022-09-26T09:12:07.694Z,421.70
2022-09-26T09:17:07.706Z,419.90
2022-09-26T09:22:07.746Z,419.90
2022-09-26T09:32:07.708Z,428.30
2022-09-26T09:37:07.756Z,424.90
2022-09-26T09:42:07.759Z,424.90
2022-09-26T09:47:07.739Z,397.00
2022-09-26T09:52:07.716Z,397.00
2022-09-26T09:57:07.745Z,398.50
2022-09-26T10:02:07.694Z,398.50
2022-09-26T10:07:07.830Z,401.00
2022-09-26T10:12:07.764Z,401.00
2022-09-26T10:17:07.736Z,392.80
2022-09-26T10:27:07.767Z,405.80
2022-09-26T10:32:07.728Z,405.80
2022-09-26T10:37:07.776Z,502.10
2022-09-26T10:42:07.758Z,502.10
2022-09-26T10:47:07.743Z,464.10
2022-09-26T10:52:07.749Z,464.10
2022-09-26T10:57:07.768Z,484.40
2022-09-26T11:02:07.873Z,484.40
2022-09-26T11:07:07.775Z,476.10
2022-09-26T11:12:07.786Z,476.10
2022-09-26T11:17:07.780Z,481.40
2022-09-26T11:22:08.475Z,481.40
2022-09-26T11:27:07.790Z,488.80
2022-09-26T11:32:07.779Z,488.80
2022-09-26T11:37:07.915Z,538.90
2022-09-26T11:42:07.783Z,538.90
2022-09-26T11:47:07.791Z,478.80
2022-09-26T11:52:07.765Z,478.80
2022-09-26T11:57:07.793Z,504.80
2022-09-26T12:02:07.765Z,504.80
2022-09-26T12:07:07.839Z,415.10
2022-09-26T12:12:07.811Z,415.10
2022-09-26T12:17:07.845Z,491.00
2022-09-26T12:22:07.821Z,491.00
2022-09-26T12:27:07.800Z,533.50
2022-09-26T12:32:07.793Z,533.50
2022-09-26T12:37:07.823Z,473.90
2022-09-26T12:42:07.811Z,473.90
2022-09-26T12:47:07.808Z,480.40
2022-09-26T12:52:07.792Z,480.40
2022-09-26T12:57:07.865Z,455.40
2022-09-26T13:02:07.873Z,455.40
2022-09-26T13:07:18.830Z,452.40
2022-09-26T13:12:07.826Z,452.40
2022-09-26T13:17:07.822Z,464.70
2022-09-26T13:22:07.797Z,464.70
2022-09-26T13:27:07.832Z,405.00
2022-09-26T13:32:07.970Z,405.00
2022-09-26T13:37:07.851Z,469.90
2022-09-26T13:42:07.821Z,469.90
2022-09-26T13:47:07.853Z,439.80
2022-09-26T13:52:07.814Z,439.80
2022-09-26T13:57:07.841Z,438.00
2022-09-26T14:02:07.945Z,438.00
2022-09-26T14:07:07.897Z,458.20
2022-09-26T14:12:07.855Z,458.20
2022-09-26T14:17:07.849Z,464.30
2022-09-26T14:22:07.940Z,464.30
2022-09-26T14:27:07.871Z,604.50
2022-09-26T14:32:07.899Z,604.50
2022-09-26T14:37:07.838Z,369.70
2022-09-26T14:47:07.870Z,396.00
2022-09-26T14:52:11.243Z,396.00
2022-09-26T14:57:07.883Z,424.20
2022-09-26T15:02:07.937Z,424.20
2022-09-26T15:07:07.883Z,435.70
2022-09-26T15:12:07.851Z,435.70
2022-09-26T15:17:07.876Z,437.10
2022-09-26T15:22:07.915Z,437.10
2022-09-26T15:27:07.886Z,437.80
2022-09-26T15:32:07.903Z,437.80
2022-09-26T15:42:07.895Z,445.00
2022-09-26T15:47:07.905Z,438.10
2022-09-26T15:52:07.903Z,438.10
2022-09-26T15:57:07.869Z,430.30
2022-09-26T16:02:07.905Z,430.30
2022-09-26T16:07:07.870Z,419.40
2022-09-26T16:12:11.618Z,419.40
2022-09-26T16:17:07.902Z,461.50
2022-09-26T16:22:07.916Z,461.50
2022-09-26T16:27:07.899Z,481.20
2022-09-26T16:32:07.913Z,481.20
2022-09-26T16:37:07.920Z,468.70
2022-09-26T16:42:07.932Z,468.70
2022-09-26T16:47:07.904Z,482.20
2022-09-26T16:52:07.928Z,482.20
2022-09-26T16:57:07.900Z,466.20
2022-09-26T17:02:07.924Z,466.20
2022-09-26T17:07:09.836Z,442.20
2022-09-26T17:12:07.937Z,442.20
2022-09-26T17:17:07.937Z,477.30
2022-09-26T17:22:07.952Z,477.30
2022-09-26T17:27:07.961Z,492.00
2022-09-26T17:32:09.853Z,492.00
2022-09-26T17:37:07.941Z,458.80
2022-09-26T17:42:07.989Z,458.80
2022-09-26T17:47:07.996Z,454.50
2022-09-26T17:52:07.923Z,454.50
2022-09-26T17:57:07.959Z,453.00
2022-09-26T18:02:07.968Z,453.00
2022-09-26T18:07:08.112Z,410.60
2022-09-26T18:12:08.073Z,410.60
2022-09-26T18:17:08.098Z,400.90
2022-09-26T18:22:07.957Z,400.90
2022-09-26T18:32:08.002Z,424.90
2022-09-26T18:37:08.060Z,423.40
2022-09-26T18:42:08.173Z,423.40
2022-09-26T18:47:08.154Z,426.80
2022-09-26T18:52:08.018Z,426.80
2022-09-26T18:57:08.242Z,425.60
2022-09-26T19:02:08.804Z,425.60
2022-09-26T19:07:07.975Z,393.40
2022-09-26T19:12:08.040Z,393.40
2022-09-26T19:17:08.054Z,418.90
2022-09-26T19:22:08.265Z,418.90
2022-09-26T19:27:08.218Z,389.00
2022-09-26T19:32:08.034Z,389.00
2022-09-26T19:37:08.009Z,411.50
2022-09-26T19:42:08.007Z,411.50
2022-09-26T19:47:08.046Z,854.70
2022-09-26T19:52:08.020Z,854.70
2022-09-26T19:57:08.009Z,842.20
2022-09-26T20:02:08.045Z,842.20
2022-09-26T20:07:08.022Z,935.10
2022-09-26T20:12:08.048Z,935.10
2022-09-26T20:17:08.043Z,991.80
2022-09-26T20:22:08.038Z,991.80
2022-09-26T20:27:08.026Z,865.50
2022-09-26T20:32:11.024Z,865.50
2022-09-26T20:37:08.027Z,731.80
2022-09-26T20:42:08.033Z,731.80
2022-09-26T20:47:08.078Z,521.40
2022-09-26T20:52:08.071Z,521.40
2022-09-26T20:57:08.066Z,547.00
2022-09-26T21:02:08.073Z,547.00
2022-09-26T21:07:08.089Z,519.70
2022-09-26T21:12:08.070Z,519.70
2022-09-26T21:17:08.147Z,554.60
2022-09-26T21:27:08.052Z,508.90
2022-09-26T21:37:08.073Z,509.60
2022-09-26T21:42:08.071Z,509.60
2022-09-26T21:47:08.161Z,575.30
2022-09-26T21:52:08.079Z,575.30
2022-09-26T21:57:08.077Z,661.90
2022-09-26T22:02:08.170Z,661.90
2022-09-26T22:07:08.091Z,566.70
2022-09-26T22:17:08.184Z,515.60
2022-09-26T22:22:08.065Z,515.60
2022-09-26T22:27:08.091Z,516.00
2022-09-26T22:32:08.070Z,516.00
2022-09-26T22:42:08.103Z,474.00
2022-09-26T22:47:08.174Z,462.40
2022-09-26T22:52:14.346Z,462.40
2022-09-26T22:57:08.108Z,539.40
2022-09-26T23:02:08.147Z,539.40
2022-09-26T23:07:08.114Z,381.20
2022-09-26T23:12:08.119Z,381.20
2022-09-26T23:17:08.235Z,436.30
2022-09-26T23:22:08.094Z,436.30
2022-09-26T23:27:08.128Z,466.10
2022-09-26T23:32:08.115Z,466.10
2022-09-26T23:37:08.112Z,361.40
2022-09-26T23:42:08.192Z,361.40
2022-09-26T23:47:08.122Z,507.10
2022-09-26T23:52:08.120Z,507.10
2022-09-26T23:57:08.134Z,561.30
